createdAt,value
2019-02-20T00:00:15.793Z,18.13
2019-02-20T00:02:46.013Z,14.00
2019-02-20T00:05:16.225Z,16.30
2019-02-20T00:07:46.944Z,18.70
2019-02-20T00:10:20.302Z,15.40
2019-02-20T00:12:50.372Z,18.83
2019-02-20T00:15:20.385Z,16.07
2019-02-20T00:17:50.412Z,20.23
2019-02-20T00:20:20.829Z,20.87
2019-02-20T00:22:51.086Z,13.80
2019-02-20T00:25:21.392Z,12.47
2019-02-20T00:27:51.901Z,24.20
2019-02-20T00:30:22.053Z,14.57
2019-02-20T00:32:52.046Z,14.60
2019-02-20T00:35:22.037Z,15.20
2019-02-20T00:37:52.092Z,15.30
2019-02-20T00:40:22.089Z,13.43
2019-02-20T00:42:52.174Z,15.40
2019-02-20T00:45:53.299Z,15.90
2019-02-20T00:48:30.365Z,11.97
2019-02-20T00:51:09.486Z,22.57
2019-02-20T00:53:45.568Z,14.67
2019-02-20T00:56:16.025Z,20.20
2019-02-20T00:58:46.057Z,11.43
2019-02-20T01:01:16.721Z,14.80
2019-02-20T01:03:46.693Z,11.67
2019-02-20T01:06:16.884Z,13.67
2019-02-20T01:08:46.896Z,13.20
2019-02-20T01:11:19.265Z,13.83
2019-02-20T01:13:48.986Z,17.07
2019-02-20T01:16:19.016Z,22.13
2019-02-20T01:18:49.596Z,15.87
2019-02-20T01:21:19.605Z,14.60
2019-02-20T01:23:49.717Z,15.57
2019-02-20T01:26:19.684Z,13.57
2019-02-20T01:28:49.642Z,14.97
2019-02-20T01:31:19.638Z,15.27
2019-02-20T01:33:49.589Z,18.40
2019-02-20T01:36:19.700Z,19.07
2019-02-20T01:38:49.795Z,13.50
2019-02-20T01:41:20.272Z,15.30
2019-02-20T01:43:50.317Z,17.13
2019-02-20T01:46:20.273Z,18.83
2019-02-20T01:48:50.211Z,15.97
2019-02-20T01:51:20.253Z,14.87
2019-02-20T01:53:50.587Z,14.37
2019-02-20T01:56:20.791Z,17.30
2019-02-20T01:58:50.829Z,15.93
2019-02-20T02:01:20.881Z,13.83
2019-02-20T02:03:51.041Z,14.30
2019-02-20T02:06:21.529Z,14.27
2019-02-20T02:08:51.574Z,15.93
2019-02-20T02:11:21.566Z,15.70
2019-02-20T02:13:51.609Z,12.40
2019-02-20T02:16:21.861Z,15.33
2019-02-20T02:18:51.879Z,12.57
2019-02-20T02:21:21.956Z,12.03
2019-02-20T02:23:52.373Z,13.10
2019-02-20T02:26:22.430Z,13.40
2019-02-20T02:28:52.381Z,20.40
2019-02-20T02:31:23.557Z,12.23
2019-02-20T02:33:53.709Z,13.00
2019-02-20T02:36:23.728Z,16.30
2019-02-20T02:38:53.897Z,12.60
2019-02-20T02:41:23.843Z,13.50
2019-02-20T02:43:53.969Z,15.33
2019-02-20T02:46:24.214Z,18.23
2019-02-20T02:48:54.866Z,13.83
2019-02-20T02:51:24.820Z,19.03
2019-02-20T02:53:55.105Z,14.20
2019-02-20T02:56:26.540Z,14.47
2019-02-20T02:58:56.504Z,16.00
2019-02-20T03:01:26.725Z,13.97
2019-02-20T03:03:57.010Z,15.30
2019-02-20T03:06:27.074Z,14.40
2019-02-20T03:08:57.069Z,15.50
2019-02-20T03:11:28.226Z,17.00
2019-02-20T03:13:58.463Z,15.53
2019-02-20T03:16:28.672Z,14.60
2019-02-20T03:18:58.642Z,20.30
2019-02-20T03:21:28.610Z,13.10
2019-02-20T03:23:58.732Z,14.00
2019-02-20T03:26:28.996Z,22.77
2019-02-20T03:28:58.964Z,13.37
2019-02-20T03:31:29.075Z,18.17
2019-02-20T03:34:00.645Z,14.50
2019-02-20T03:36:30.840Z,24.60
2019-02-20T03:39:00.845Z,12.17
2019-02-20T03:41:31.239Z,26.00
2019-02-20T03:44:01.426Z,15.07
2019-02-20T03:46:31.433Z,21.30
2019-02-20T03:49:01.498Z,22.53
2019-02-20T03:51:31.450Z,16.57
2019-02-20T03:54:01.431Z,14.17
2019-02-20T03:56:31.622Z,21.07
2019-02-20T03:59:02.565Z,16.80
2019-02-20T04:01:32.536Z,18.40
2019-02-20T04:04:02.668Z,13.47
2019-02-20T04:06:32.831Z,16.03
2019-02-20T04:09:02.778Z,17.87
2019-02-20T04:11:32.833Z,15.97
2019-02-20T04:14:02.898Z,14.60
2019-02-20T04:16:33.150Z,15.60
2019-02-20T04:19:03.085Z,15.10
2019-02-20T04:21:33.119Z,16.43
2019-02-20T04:24:03.218Z,26.70
2019-02-20T04:26:33.267Z,18.23
2019-02-20T04:29:03.376Z,15.27
2019-02-20T04:31:33.554Z,17.50
2019-02-20T04:34:03.986Z,15.60
2019-02-20T04:36:34.001Z,18.10
2019-02-20T04:39:05.509Z,21.00
2019-02-20T04:41:35.508Z,17.57
2019-02-20T04:44:05.598Z,18.87
2019-02-20T04:46:35.580Z,19.53
2019-02-20T04:49:05.574Z,18.87
2019-02-20T04:51:35.561Z,24.83
2019-02-20T04:54:13.060Z,18.53
2019-02-20T04:56:37.426Z,19.63
2019-02-20T04:59:07.400Z,16.63
2019-02-20T05:01:37.422Z,30.20
2019-02-20T05:04:07.422Z,33.57
2019-02-20T05:06:37.409Z,68.00
2019-02-20T05:09:07.891Z,27.03
2019-02-20T05:11:37.999Z,22.10
2019-02-20T05:14:07.999Z,30.70
2019-02-20T05:16:38.562Z,27.33
2019-02-20T05:19:08.527Z,26.37
2019-02-20T05:21:38.693Z,35.43
2019-02-20T05:24:08.911Z,54.67
2019-02-20T05:26:38.915Z,71.07
2019-02-20T05:29:08.890Z,30.67
2019-02-20T05:31:38.906Z,59.53
2019-02-20T05:34:08.914Z,40.57
2019-02-20T05:36:38.880Z,120.80
2019-02-20T05:39:08.822Z,83.13
2019-02-20T05:41:38.816Z,76.87
2019-02-20T05:44:08.849Z,72.37
2019-02-20T05:46:38.835Z,39.00
2019-02-20T05:49:08.912Z,41.37
2019-02-20T05:51:39.186Z,35.53
2019-02-20T05:54:09.359Z,46.63
2019-02-20T05:56:39.512Z,43.20
2019-02-20T05:59:09.531Z,47.37
2019-02-20T06:01:40.838Z,28.77
2019-02-20T06:04:10.939Z,29.40
2019-02-20T06:06:42.929Z,14.40
2019-02-20T06:09:12.933Z,22.03
2019-02-20T06:11:42.978Z,30.07
2019-02-20T06:14:13.017Z,23.17
2019-02-20T06:16:43.013Z,15.70
2019-02-20T06:19:13.051Z,21.57
2019-02-20T06:21:43.370Z,37.97
2019-02-20T06:24:13.401Z,29.83
2019-02-20T06:26:43.501Z,37.57
2019-02-20T06:29:13.613Z,35.47
2019-02-20T06:31:43.780Z,53.70
2019-02-20T06:34:13.800Z,19.40
2019-02-20T06:36:43.867Z,20.60
2019-02-20T06:39:14.102Z,40.53
2019-02-20T06:41:44.198Z,34.77
2019-02-20T06:44:14.245Z,22.93
2019-02-20T06:46:44.269Z,30.43
2019-02-20T06:49:14.309Z,18.83
2019-02-20T06:51:44.346Z,15.07
2019-02-20T06:54:14.435Z,22.30
2019-02-20T06:56:44.540Z,18.73
2019-02-20T06:59:14.593Z,21.87
2019-02-20T07:01:44.665Z,34.80
2019-02-20T07:04:15.879Z,23.57
2019-02-20T07:06:56.381Z,19.13
2019-02-20T07:10:37.618Z,19.90
2019-02-20T07:13:38.784Z,14.30
2019-02-20T07:16:33.685Z,17.20
2019-02-20T07:19:24.931Z,32.50
2019-02-20T07:22:44.414Z,11.00
2019-02-20T07:25:46.478Z,51.43
2019-02-20T07:28:50.295Z,12.60
2019-02-20T07:31:20.890Z,34.03
2019-02-20T07:33:51.254Z,32.40
2019-02-20T07:36:21.457Z,57.37
2019-02-20T07:38:51.506Z,76.83
2019-02-20T07:41:21.481Z,61.03
2019-02-20T07:43:51.986Z,32.13
2019-02-20T07:46:22.077Z,63.20
2019-02-20T07:48:52.097Z,38.43
2019-02-20T07:51:22.121Z,35.67
2019-02-20T07:53:52.164Z,47.23
2019-02-20T07:56:23.987Z,35.97
2019-02-20T07:58:54.640Z,51.37
2019-02-20T08:01:24.660Z,42.23
2019-02-20T08:03:54.741Z,60.87
2019-02-20T08:06:24.677Z,52.20
2019-02-20T08:08:54.805Z,122.77
2019-02-20T08:11:24.850Z,117.93
2019-02-20T08:13:54.862Z,78.97
2019-02-20T08:16:24.989Z,128.93
2019-02-20T08:18:55.366Z,88.30
2019-02-20T08:21:28.105Z,70.60
2019-02-20T08:23:58.121Z,89.53
2019-02-20T08:26:28.217Z,45.23
2019-02-20T08:28:58.366Z,72.70
2019-02-20T08:31:28.559Z,21.57
2019-02-20T08:33:59.115Z,29.60
2019-02-20T08:36:29.097Z,33.13
2019-02-20T08:38:59.129Z,17.53
2019-02-20T08:41:29.135Z,17.80
2019-02-20T08:43:59.178Z,29.77
2019-02-20T08:46:29.304Z,23.87
2019-02-20T08:48:59.281Z,29.07
2019-02-20T08:51:29.986Z,21.63
2019-02-20T08:54:00.053Z,24.00
2019-02-20T08:56:30.362Z,24.00
2019-02-20T08:59:00.701Z,17.13
2019-02-20T09:01:30.942Z,18.60
2019-02-20T09:04:01.403Z,33.33
2019-02-20T09:06:31.550Z,14.97
2019-02-20T09:09:01.665Z,14.13
2019-02-20T09:11:32.372Z,19.00
2019-02-20T09:14:02.536Z,20.77
2019-02-20T09:16:33.533Z,15.53
2019-02-20T09:19:03.855Z,21.60
2019-02-20T09:21:33.910Z,16.10
2019-02-20T09:24:03.931Z,21.70
2019-02-20T09:26:34.385Z,20.60
2019-02-20T09:29:05.011Z,12.83
2019-02-20T09:31:35.025Z,17.93
2019-02-20T09:34:05.213Z,21.23
2019-02-20T09:36:35.182Z,20.37
2019-02-20T09:39:33.040Z,18.20
2019-02-20T09:42:03.214Z,20.17
2019-02-20T09:44:36.418Z,19.67
2019-02-20T09:47:06.490Z,17.60
2019-02-20T09:49:36.741Z,19.63
2019-02-20T09:52:06.768Z,26.83
2019-02-20T09:54:36.817Z,15.57
2019-02-20T09:57:06.916Z,17.47
2019-02-20T09:59:36.886Z,29.23
2019-02-20T10:02:06.862Z,16.97
2019-02-20T10:04:36.999Z,13.33
2019-02-20T10:07:06.998Z,14.57
2019-02-20T10:09:37.150Z,20.33
2019-02-20T10:12:07.629Z,21.27
2019-02-20T10:14:37.737Z,13.00
2019-02-20T10:17:07.744Z,13.83
2019-02-20T10:19:37.791Z,19.13
2019-02-20T10:22:07.779Z,15.47
2019-02-20T10:24:37.769Z,14.37
2019-02-20T10:27:09.081Z,16.73
2019-02-20T10:29:39.230Z,19.00
2019-02-20T10:32:09.293Z,17.17
2019-02-20T10:34:39.313Z,23.57
2019-02-20T10:37:09.391Z,13.27
2019-02-20T10:39:39.550Z,12.13
2019-02-20T10:42:09.677Z,8.83
2019-02-20T10:44:41.125Z,12.17
2019-02-20T10:47:11.241Z,17.10
2019-02-20T10:49:41.579Z,10.33
2019-02-20T10:52:11.578Z,10.23
2019-02-20T10:54:42.082Z,10.40
2019-02-20T10:57:12.257Z,9.90
2019-02-20T10:59:42.450Z,12.40
2019-02-20T11:02:12.671Z,18.63
2019-02-20T11:04:43.074Z,16.23
2019-02-20T11:07:13.303Z,12.73
2019-02-20T11:09:46.200Z,16.10
2019-02-20T11:12:15.959Z,7.30
2019-02-20T11:14:46.095Z,7.93
2019-02-20T11:17:16.183Z,11.53
2019-02-20T11:19:46.243Z,10.63
2019-02-20T11:22:18.079Z,18.00
2019-02-20T11:24:48.366Z,11.40
2019-02-20T11:27:19.500Z,8.83
2019-02-20T11:29:49.548Z,9.33
2019-02-20T11:32:19.541Z,16.57
2019-02-20T11:34:49.551Z,10.67
2019-02-20T11:37:19.542Z,16.27
2019-02-20T11:39:49.741Z,9.73
2019-02-20T11:42:20.207Z,9.60
2019-02-20T11:44:50.262Z,15.20
2019-02-20T11:47:20.395Z,9.90
2019-02-20T11:49:50.508Z,8.97
2019-02-20T11:52:20.609Z,8.87
2019-02-20T11:54:50.723Z,8.87
2019-02-20T11:57:21.367Z,14.73
2019-02-20T11:59:52.411Z,15.67
2019-02-20T12:02:25.477Z,12.73
2019-02-20T12:04:56.371Z,11.63
2019-02-20T12:07:26.594Z,7.80
2019-02-20T12:09:56.647Z,11.23
2019-02-20T12:12:26.732Z,10.57
2019-02-20T12:14:57.549Z,17.03
2019-02-20T12:17:28.266Z,11.97
2019-02-20T12:19:58.288Z,11.47
2019-02-20T12:22:28.320Z,14.00
2019-02-20T12:24:59.339Z,12.50
2019-02-20T12:27:29.611Z,12.67
2019-02-20T12:30:00.353Z,15.23
2019-02-20T12:32:31.029Z,8.43
2019-02-20T12:35:00.989Z,12.30
2019-02-20T12:37:31.342Z,16.10
2019-02-20T12:40:01.424Z,19.10
2019-02-20T12:42:31.430Z,12.87
2019-02-20T12:45:01.406Z,12.50
2019-02-20T12:47:31.329Z,13.10
2019-02-20T12:50:01.361Z,9.40
2019-02-20T12:52:31.462Z,19.00
2019-02-20T12:55:01.518Z,12.00
2019-02-20T12:57:31.605Z,21.47
2019-02-20T13:00:01.603Z,14.30
2019-02-20T13:02:31.576Z,10.93
2019-02-20T13:05:01.635Z,14.03
2019-02-20T13:07:33.155Z,10.60
2019-02-20T13:10:03.339Z,14.87
2019-02-20T13:12:33.515Z,15.53
2019-02-20T13:15:03.517Z,10.63
2019-02-20T13:17:33.583Z,8.80
2019-02-20T13:20:03.555Z,7.07
2019-02-20T13:22:33.558Z,11.83
2019-02-20T13:25:04.215Z,4.20
2019-02-20T13:27:34.341Z,6.50
2019-02-20T13:30:05.109Z,8.10
2019-02-20T13:32:35.102Z,9.80
2019-02-20T13:35:05.342Z,7.77
2019-02-20T13:37:35.422Z,10.33
2019-02-20T13:40:05.814Z,10.43
2019-02-20T13:42:36.001Z,6.60
2019-02-20T13:45:06.329Z,13.77
2019-02-20T13:47:36.458Z,6.77
2019-02-20T13:50:08.590Z,8.37
2019-02-20T13:52:38.650Z,4.83
2019-02-20T13:55:08.889Z,5.83
2019-02-20T13:57:38.942Z,8.17
2019-02-20T14:00:09.489Z,11.47
2019-02-20T14:02:39.549Z,8.67
2019-02-20T14:05:10.010Z,10.17
2019-02-20T14:07:40.973Z,10.53
2019-02-20T14:10:12.135Z,8.23
2019-02-20T14:12:42.729Z,6.07
2019-02-20T14:15:12.973Z,13.03
2019-02-20T14:17:42.986Z,8.57
2019-02-20T14:20:13.677Z,7.30
2019-02-20T14:22:43.879Z,13.40
2019-02-20T14:25:13.897Z,7.53
2019-02-20T14:27:44.273Z,6.20
2019-02-20T14:30:14.530Z,7.93
2019-02-20T14:32:44.524Z,7.60
2019-02-20T14:35:15.081Z,10.10
2019-02-20T14:37:45.509Z,5.57
2019-02-20T14:40:15.610Z,9.70
2019-02-20T14:42:45.792Z,7.10
2019-02-20T14:45:17.113Z,6.50
2019-02-20T14:47:47.177Z,6.60
2019-02-20T14:50:17.251Z,11.03
2019-02-20T14:52:47.378Z,7.13
2019-02-20T14:55:18.345Z,10.53
2019-02-20T14:57:48.389Z,6.90
2019-02-20T15:00:18.508Z,7.87
2019-02-20T15:02:48.485Z,8.07
2019-02-20T15:05:19.158Z,10.43
2019-02-20T15:07:49.242Z,7.63
2019-02-20T15:10:19.801Z,8.53
2019-02-20T15:12:49.885Z,13.50
2019-02-20T15:15:19.998Z,7.00
2019-02-20T15:17:50.065Z,6.90
2019-02-20T15:20:20.417Z,11.33
2019-02-20T15:22:50.621Z,12.70
2019-02-20T15:25:21.216Z,7.60
2019-02-20T15:27:51.602Z,12.27
2019-02-20T15:30:22.662Z,8.93
2019-02-20T15:32:52.974Z,7.30
2019-02-20T15:35:23.074Z,6.80
2019-02-20T15:37:53.145Z,7.40
2019-02-20T15:40:23.506Z,10.57
2019-02-20T15:42:53.607Z,9.33
2019-02-20T15:45:23.578Z,9.70
2019-02-20T15:47:54.169Z,12.47
2019-02-20T15:50:24.159Z,7.67
2019-02-20T15:52:54.227Z,6.70
2019-02-20T15:55:24.215Z,8.87
2019-02-20T15:57:54.213Z,10.13
2019-02-20T16:00:26.217Z,7.30
2019-02-20T16:02:56.869Z,10.30
2019-02-20T16:05:26.924Z,8.20
2019-02-20T16:07:56.977Z,9.50
2019-02-20T16:10:27.050Z,11.03
2019-02-20T16:12:57.590Z,10.77
2019-02-20T16:15:27.557Z,9.50
2019-02-20T16:17:57.850Z,6.13
2019-02-20T16:20:27.902Z,9.77
2019-02-20T16:22:58.490Z,13.60
2019-02-20T16:25:28.547Z,10.83
2019-02-20T16:27:58.876Z,8.47
2019-02-20T16:30:28.878Z,8.53
2019-02-20T16:33:00.762Z,6.47
2019-02-20T16:35:30.666Z,6.83
2019-02-20T16:38:01.722Z,17.23
2019-02-20T16:40:31.973Z,8.37
2019-02-20T16:43:03.799Z,7.40
2019-02-20T16:45:33.622Z,7.50
2019-02-20T16:48:03.798Z,12.80
2019-02-20T16:50:34.245Z,8.23
2019-02-20T16:53:04.450Z,8.50
2019-02-20T16:55:35.085Z,8.70
2019-02-20T16:58:05.570Z,10.27
2019-02-20T17:00:35.993Z,10.43
2019-02-20T17:03:06.822Z,13.80
2019-02-20T17:05:36.854Z,8.60
2019-02-20T17:08:07.370Z,15.20
2019-02-20T17:10:37.410Z,12.30
2019-02-20T17:13:08.512Z,23.63
2019-02-20T17:15:38.561Z,9.77
2019-02-20T17:18:08.631Z,16.23
2019-02-20T17:20:39.541Z,11.10
2019-02-20T17:23:11.005Z,7.60
2019-02-20T17:25:41.043Z,10.27
2019-02-20T17:28:11.597Z,15.40
2019-02-20T17:30:41.696Z,7.97
2019-02-20T17:33:12.526Z,14.40
2019-02-20T17:35:42.760Z,7.23
2019-02-20T17:38:13.033Z,21.53
2019-02-20T17:40:43.580Z,43.97
2019-02-20T17:43:14.698Z,39.27
2019-02-20T17:45:44.749Z,39.10
2019-02-20T17:48:14.751Z,21.37
2019-02-20T17:50:44.912Z,26.97
2019-02-20T17:53:15.378Z,28.80
2019-02-20T17:55:45.435Z,42.20
2019-02-20T17:58:15.719Z,35.93
2019-02-20T18:00:45.744Z,54.00
2019-02-20T18:03:15.756Z,30.63
2019-02-20T18:05:45.764Z,39.37
2019-02-20T18:08:15.798Z,27.43
2019-02-20T18:10:45.779Z,38.23
2019-02-20T18:13:15.980Z,29.80
2019-02-20T18:15:46.481Z,50.67
2019-02-20T18:18:16.537Z,29.07
2019-02-20T18:20:46.724Z,42.80
2019-02-20T18:23:17.847Z,45.90
2019-02-20T18:25:48.877Z,93.50
2019-02-20T18:28:24.534Z,79.10
2019-02-20T18:30:51.535Z,68.03
2019-02-20T18:33:23.810Z,51.03
2019-02-20T18:35:55.679Z,65.07
2019-02-20T18:38:27.893Z,60.63
2019-02-20T18:40:58.968Z,83.17
2019-02-20T18:43:29.246Z,40.00
2019-02-20T18:45:59.740Z,47.07
2019-02-20T18:48:29.734Z,22.67
2019-02-20T18:51:00.296Z,25.27
2019-02-20T18:53:31.139Z,42.90
2019-02-20T18:56:01.379Z,41.87
2019-02-20T18:58:34.054Z,27.07
2019-02-20T19:01:03.347Z,51.50
2019-02-20T19:03:33.914Z,23.67
2019-02-20T19:06:04.058Z,32.23
2019-02-20T19:08:45.926Z,27.00
2019-02-20T19:11:58.769Z,77.73
2019-02-20T19:15:12.582Z,41.57
2019-02-20T19:18:08.491Z,24.33
2019-02-20T19:20:53.864Z,36.23
2019-02-20T19:24:12.677Z,56.40
2019-02-20T19:27:08.862Z,76.43
2019-02-20T19:30:27.863Z,54.57
2019-02-20T19:33:36.363Z,101.67
2019-02-20T19:36:43.270Z,35.07
2019-02-20T19:39:40.476Z,32.83
2019-02-20T19:42:53.194Z,69.67
2019-02-20T19:45:55.347Z,54.60
2019-02-20T19:48:37.586Z,68.53
2019-02-20T19:51:35.516Z,70.17
2019-02-20T19:54:32.350Z,48.93
2019-02-20T19:57:37.657Z,34.17
2019-02-20T20:00:38.712Z,23.67
2019-02-20T20:03:32.570Z,43.57
2019-02-20T20:06:41.613Z,13.60
2019-02-20T20:09:51.137Z,31.63
2019-02-20T20:13:11.181Z,27.77
2019-02-20T20:16:09.889Z,24.97
2019-02-20T20:19:09.675Z,23.30
2019-02-20T20:22:05.729Z,24.20
2019-02-20T20:25:24.813Z,19.87
2019-02-20T20:28:54.281Z,14.07
2019-02-20T20:31:51.510Z,12.07
2019-02-20T20:34:52.146Z,19.27
2019-02-20T20:37:33.239Z,15.53
2019-02-20T20:40:49.197Z,14.17
2019-02-20T20:43:41.733Z,18.37
2019-02-20T20:46:53.839Z,15.63
2019-02-20T20:50:15.794Z,17.43
2019-02-20T20:53:11.873Z,15.80
2019-02-20T20:56:28.482Z,11.90
2019-02-20T20:59:39.670Z,16.87
2019-02-20T21:02:36.451Z,17.03
2019-02-20T21:05:57.001Z,13.63
2019-02-20T21:08:42.968Z,18.73
2019-02-20T21:12:06.572Z,11.83
2019-02-20T21:15:05.984Z,15.80
2019-02-20T21:18:23.301Z,11.77
2019-02-20T21:21:27.565Z,13.53
2019-02-20T21:24:35.046Z,17.83
2019-02-20T21:28:00.774Z,12.67
2019-02-20T21:31:06.222Z,25.87
2019-02-20T21:34:18.092Z,10.93
2019-02-20T21:37:30.054Z,13.10
2019-02-20T21:40:48.930Z,12.27
2019-02-20T21:43:44.810Z,22.97
2019-02-20T21:46:52.973Z,11.60
2019-02-20T21:50:03.932Z,18.00
2019-02-20T21:53:17.348Z,18.50
2019-02-20T21:56:14.603Z,13.90
2019-02-20T21:59:18.040Z,17.30
2019-02-20T22:02:22.285Z,22.90
2019-02-20T22:05:20.902Z,15.80
2019-02-20T22:08:21.723Z,19.10
2019-02-20T22:11:32.043Z,21.23
2019-02-20T22:14:43.076Z,14.83
2019-02-20T22:17:52.640Z,19.90
2019-02-20T22:20:58.118Z,18.40
2019-02-20T22:24:17.113Z,22.50
2019-02-20T22:27:30.466Z,19.03
2019-02-20T22:30:40.354Z,15.13
2019-02-20T22:33:28.691Z,27.00
2019-02-20T22:36:29.019Z,28.27
2019-02-20T22:39:42.960Z,11.90
2019-02-20T22:42:55.209Z,16.03
2019-02-20T22:45:51.401Z,13.97
2019-02-20T22:48:41.334Z,11.50
2019-02-20T22:51:33.553Z,13.13
2019-02-20T22:54:39.989Z,18.60
2019-02-20T22:57:39.378Z,21.67
2019-02-20T23:01:11.281Z,22.00
2019-02-20T23:04:05.503Z,17.70
2019-02-20T23:07:04.440Z,14.40
2019-02-20T23:09:59.120Z,15.27
2019-02-20T23:13:13.982Z,23.13
2019-02-20T23:15:43.985Z,12.70
2019-02-20T23:18:13.954Z,19.87
2019-02-20T23:20:44.069Z,29.53
2019-02-20T23:23:14.553Z,17.37
2019-02-20T23:25:44.643Z,20.87
2019-02-20T23:28:15.114Z,25.93
2019-02-20T23:30:45.303Z,37.30
2019-02-20T23:33:15.308Z,23.63
2019-02-20T23:35:45.278Z,12.90
2019-02-20T23:38:15.285Z,22.40
2019-02-20T23:40:45.530Z,25.73
2019-02-20T23:43:15.791Z,23.50
2019-02-20T23:45:46.053Z,17.43
2019-02-20T23:48:16.470Z,21.40
2019-02-20T23:50:46.468Z,24.47
2019-02-20T23:53:18.675Z,37.53
2019-02-20T23:55:48.421Z,31.27
2019-02-20T23:58:18.739Z,24.60
